createdAt,value
2018-09-21T00:03:03.025Z,60.01
2018-09-21T00:08:06.766Z,59.92
2018-09-21T00:13:10.517Z,60.56
2018-09-21T00:18:14.065Z,59.88
2018-09-21T00:23:17.763Z,60.89
2018-09-21T00:28:21.284Z,60.60
2018-09-21T00:33:25.187Z,59.89
2018-09-21T00:38:28.702Z,60.08
2018-09-21T00:43:32.460Z,60.34
2018-09-21T00:48:35.993Z,60.49
2018-09-21T00:53:39.516Z,60.66
2018-09-21T00:58:43.119Z,59.76
2018-09-21T01:03:46.896Z,59.71
2018-09-21T01:08:50.832Z,59.82
2018-09-21T01:13:54.463Z,59.69
2018-09-21T01:18:58.248Z,59.85
2018-09-21T01:24:01.861Z,59.48
2018-09-21T01:29:05.432Z,59.76
2018-09-21T01:34:09.080Z,60.34
2018-09-21T01:39:12.763Z,59.87
2018-09-21T01:44:16.283Z,59.39
2018-09-21T01:49:19.920Z,59.17
2018-09-21T01:54:23.455Z,59.63
2018-09-21T01:59:27.504Z,59.55
2018-09-21T02:04:36.472Z,59.52
2018-09-21T02:09:40.297Z,60.13
2018-09-21T02:14:43.843Z,59.84
2018-09-21T02:19:47.414Z,60.78
2018-09-21T02:24:51.326Z,60.33
2018-09-21T02:29:55.016Z,59.91
2018-09-21T02:34:58.744Z,60.99
2018-09-21T02:40:02.459Z,61.54
2018-09-21T02:45:07.023Z,61.53
2018-09-21T02:50:10.691Z,61.67
2018-09-21T02:55:14.550Z,61.69
2018-09-21T03:00:20.536Z,61.46
2018-09-21T03:05:24.260Z,61.49
2018-09-21T03:10:27.818Z,61.33
2018-09-21T03:15:31.599Z,62.63
2018-09-21T03:20:35.315Z,62.38
2018-09-21T03:25:39.242Z,62.42
2018-09-21T03:30:42.959Z,62.18
2018-09-21T03:35:46.566Z,62.11
2018-09-21T03:40:50.604Z,60.95
2018-09-21T03:45:54.191Z,60.70
2018-09-21T03:50:58.107Z,59.83
2018-09-21T03:56:01.776Z,60.04
2018-09-21T04:01:05.722Z,58.76
2018-09-21T04:06:09.365Z,58.69
2018-09-21T04:11:13.028Z,57.57
2018-09-21T04:16:16.769Z,57.10
2018-09-21T04:21:20.541Z,57.25
2018-09-21T04:26:24.471Z,56.77
2018-09-21T04:31:28.227Z,55.97
2018-09-21T04:36:31.877Z,55.78
2018-09-21T04:41:35.938Z,55.98
2018-09-21T04:46:39.605Z,55.23
2018-09-21T04:51:43.342Z,55.33
2018-09-21T04:56:47.007Z,54.61
2018-09-21T05:01:50.959Z,54.30
2018-09-21T05:06:54.914Z,53.43
2018-09-21T05:11:58.452Z,52.63
2018-09-21T05:17:02.113Z,53.75
2018-09-21T05:22:05.701Z,52.99
2018-09-21T05:27:09.232Z,52.61
2018-09-21T05:32:12.916Z,52.27
2018-09-21T05:37:16.500Z,53.44
2018-09-21T05:42:21.222Z,52.68
2018-09-21T05:47:25.042Z,52.34
2018-09-21T05:52:28.649Z,52.89
2018-09-21T05:57:32.255Z,52.90
2018-09-21T06:02:35.850Z,51.80
2018-09-21T06:07:39.535Z,52.64
2018-09-21T06:12:43.168Z,52.49
2018-09-21T06:17:46.818Z,53.04
2018-09-21T06:22:50.724Z,53.07
2018-09-21T06:27:54.360Z,53.05
2018-09-21T06:32:58.113Z,53.36
2018-09-21T06:38:01.755Z,53.57
2018-09-21T06:43:05.381Z,53.30
2018-09-21T06:48:09.354Z,53.25
2018-09-21T06:53:13.173Z,53.15
2018-09-21T06:58:17.839Z,51.40
2018-09-21T07:03:22.590Z,51.24
2018-09-21T07:08:27.158Z,49.68
2018-09-21T07:13:32.226Z,49.19
2018-09-21T07:18:37.424Z,48.14
2018-09-21T07:23:42.294Z,47.59
2018-09-21T07:28:46.552Z,47.76
2018-09-21T07:33:52.479Z,47.79
2018-09-21T07:38:57.388Z,48.43
2018-09-21T07:44:01.650Z,47.93
2018-09-21T07:49:05.309Z,48.34
2018-09-21T07:54:09.658Z,48.10
2018-09-21T07:59:13.550Z,48.42
2018-09-21T08:04:17.083Z,48.38
2018-09-21T08:09:20.690Z,48.38
2018-09-21T08:14:24.422Z,48.61
2018-09-21T08:19:28.018Z,47.83
2018-09-21T08:24:31.615Z,47.90
2018-09-21T08:29:35.199Z,48.93
2018-09-21T08:34:38.956Z,49.35
2018-09-21T08:39:42.584Z,48.45
2018-09-21T08:44:46.100Z,48.95
2018-09-21T08:49:49.815Z,48.09
2018-09-21T08:54:53.416Z,48.39
2018-09-21T08:59:57.003Z,47.68
2018-09-21T09:05:00.620Z,48.05
2018-09-21T09:10:04.199Z,47.44
2018-09-21T09:15:07.792Z,48.14
2018-09-21T09:20:11.515Z,51.80
2018-09-21T09:25:15.175Z,52.47
2018-09-21T09:30:25.350Z,53.30
2018-09-21T09:35:29.146Z,55.41
2018-09-21T09:40:32.772Z,60.03
2018-09-21T09:45:36.519Z,68.34
2018-09-21T09:50:41.594Z,77.73
2018-09-21T09:55:45.211Z,84.34
2018-09-21T10:00:51.858Z,90.91
2018-09-21T10:05:55.421Z,81.19
2018-09-21T10:10:58.952Z,79.32
2018-09-21T10:16:02.638Z,79.78
2018-09-21T10:21:06.179Z,82.02
2018-09-21T10:26:09.713Z,81.80
2018-09-21T10:31:13.263Z,84.35
2018-09-21T10:36:16.859Z,86.40
2018-09-21T10:41:20.382Z,84.22
2018-09-21T10:46:24.301Z,82.26
2018-09-21T10:51:28.463Z,80.12
2018-09-21T10:56:32.242Z,78.87
2018-09-21T11:01:36.002Z,79.60
2018-09-21T11:06:39.535Z,79.65
2018-09-21T11:11:43.086Z,79.92
2018-09-21T11:16:46.639Z,82.75
2018-09-21T11:21:50.371Z,78.26
2018-09-21T11:26:56.073Z,79.31
2018-09-21T11:32:03.273Z,80.86
2018-09-21T11:37:06.964Z,78.67
2018-09-21T11:42:12.543Z,78.03
2018-09-21T11:47:19.207Z,78.28
2018-09-21T11:52:23.565Z,76.91
2018-09-21T11:57:38.255Z,76.09
2018-09-21T12:02:42.058Z,76.90
2018-09-21T12:07:45.644Z,77.87
2018-09-21T12:12:49.425Z,75.54
2018-09-21T12:17:52.993Z,75.68
2018-09-21T12:22:56.603Z,76.78
2018-09-21T12:28:00.368Z,78.55
2018-09-21T12:33:03.926Z,75.43
2018-09-21T12:38:07.483Z,74.75
2018-09-21T12:43:11.063Z,73.03
2018-09-21T12:48:14.661Z,72.53
2018-09-21T12:53:18.180Z,73.23
2018-09-21T12:58:21.942Z,70.72
2018-09-21T13:03:25.473Z,70.74
2018-09-21T13:08:29.331Z,72.35
2018-09-21T13:13:32.985Z,75.87
2018-09-21T13:18:36.825Z,83.12
2018-09-21T13:23:40.663Z,79.38
2018-09-21T13:28:44.328Z,76.39
2018-09-21T13:33:47.822Z,73.82
2018-09-21T13:38:51.352Z,71.42
2018-09-21T13:43:55.174Z,71.16
2018-09-21T13:48:58.765Z,70.36
2018-09-21T13:54:02.344Z,67.84
2018-09-21T13:59:06.064Z,68.05
2018-09-21T14:04:09.622Z,67.49
2018-09-21T14:09:13.192Z,65.02
2018-09-21T14:14:16.700Z,60.86
2018-09-21T14:19:20.540Z,60.45
2018-09-21T14:24:24.368Z,55.42
2018-09-21T14:29:28.254Z,56.05
2018-09-21T14:34:31.890Z,53.76
2018-09-21T14:39:35.461Z,53.32
2018-09-21T14:44:39.066Z,50.11
2018-09-21T14:49:42.785Z,50.87
2018-09-21T14:54:46.342Z,50.33
2018-09-21T14:59:49.955Z,51.25
2018-09-21T15:04:53.629Z,49.90
2018-09-21T15:09:57.203Z,50.19
2018-09-21T15:15:00.721Z,49.08
2018-09-21T15:20:04.344Z,49.14
2018-09-21T15:25:07.869Z,49.42
2018-09-21T15:30:14.046Z,49.35
2018-09-21T15:35:17.795Z,49.77
2018-09-21T15:40:21.442Z,49.96
2018-09-21T15:45:24.987Z,50.64
2018-09-21T15:50:28.564Z,49.99
2018-09-21T15:55:32.163Z,47.05
2018-09-21T16:00:35.954Z,47.26
2018-09-21T16:05:39.483Z,45.74
2018-09-21T16:10:43.084Z,43.90
2018-09-21T16:15:46.668Z,43.50
2018-09-21T16:20:50.289Z,43.71
2018-09-21T16:25:53.816Z,43.42
2018-09-21T16:30:57.377Z,44.67
2018-09-21T16:36:00.969Z,43.88
2018-09-21T16:41:04.583Z,44.73
2018-09-21T16:46:08.276Z,44.42
2018-09-21T16:51:12.131Z,45.03
2018-09-21T16:56:16.106Z,45.41
2018-09-21T17:01:19.730Z,44.99
2018-09-21T17:06:23.337Z,44.77
2018-09-21T17:11:27.067Z,45.60
2018-09-21T17:16:30.564Z,45.44
2018-09-21T17:21:34.337Z,46.08
2018-09-21T17:26:37.932Z,46.30
2018-09-21T17:31:42.398Z,45.82
2018-09-21T17:36:46.032Z,45.44
2018-09-21T17:41:51.093Z,45.39
2018-09-21T17:46:56.143Z,45.17
2018-09-21T17:52:01.230Z,45.50
2018-09-21T17:57:08.401Z,45.37
2018-09-21T18:02:12.431Z,45.52
2018-09-21T18:07:22.259Z,46.01
2018-09-21T18:12:27.736Z,46.13
2018-09-21T18:17:33.553Z,46.44
2018-09-21T18:22:37.217Z,47.15
2018-09-21T18:27:40.851Z,46.83
2018-09-21T18:32:44.426Z,47.34
2018-09-21T18:37:48.074Z,48.49
2018-09-21T18:42:51.653Z,48.75
2018-09-21T18:47:55.252Z,48.68
2018-09-21T18:52:58.845Z,49.39
2018-09-21T18:58:02.412Z,50.40
2018-09-21T19:03:06.187Z,50.98
2018-09-21T19:08:09.865Z,49.67
2018-09-21T19:13:13.418Z,50.19
2018-09-21T19:18:16.993Z,50.35
2018-09-21T19:23:20.740Z,54.11
2018-09-21T19:28:24.615Z,57.78
2018-09-21T19:33:29.132Z,58.70
2018-09-21T19:38:33.075Z,57.61
2018-09-21T19:43:36.593Z,59.59
2018-09-21T19:48:40.140Z,58.72
2018-09-21T19:53:43.681Z,59.08
2018-09-21T19:58:47.292Z,59.60
2018-09-21T20:03:50.885Z,62.30
2018-09-21T20:08:54.476Z,64.26
2018-09-21T20:13:58.055Z,77.67
2018-09-21T20:19:01.681Z,80.55
2018-09-21T20:24:05.214Z,84.54
2018-09-21T20:29:23.074Z,86.71
2018-09-21T20:34:29.445Z,86.80
2018-09-21T20:39:33.134Z,89.22
2018-09-21T20:44:48.373Z,90.82
2018-09-21T20:49:52.057Z,93.28
2018-09-21T20:54:56.583Z,94.73
2018-09-21T21:00:01.126Z,93.05
2018-09-21T21:05:04.925Z,95.75
2018-09-21T21:10:08.697Z,94.12
2018-09-21T21:15:19.234Z,99.62
2018-09-21T21:20:22.850Z,98.45
2018-09-21T21:25:26.386Z,96.76
2018-09-21T21:30:30.097Z,98.51
2018-09-21T21:35:33.651Z,89.31
2018-09-21T21:40:37.162Z,88.58
2018-09-21T21:45:40.797Z,88.43
2018-09-21T21:50:44.345Z,86.45
2018-09-21T21:55:47.894Z,87.95
2018-09-21T22:00:57.421Z,87.02
2018-09-21T22:06:01.055Z,88.48
2018-09-21T22:11:08.870Z,88.96
2018-09-21T22:16:12.526Z,88.93
2018-09-21T22:21:16.135Z,91.44
2018-09-21T22:26:19.765Z,93.21
2018-09-21T22:31:23.508Z,93.01
2018-09-21T22:36:27.114Z,93.24
2018-09-21T22:41:30.683Z,92.94
2018-09-21T22:46:34.289Z,92.12
2018-09-21T22:51:37.853Z,93.38
2018-09-21T22:56:41.461Z,93.75
2018-09-21T23:01:45.071Z,92.08
2018-09-21T23:06:48.609Z,90.23
2018-09-21T23:11:52.313Z,89.00
2018-09-21T23:16:55.927Z,87.28
2018-09-21T23:22:06.295Z,88.02
2018-09-21T23:27:09.819Z,86.35
2018-09-21T23:32:13.427Z,85.53
2018-09-21T23:37:17.038Z,84.16
2018-09-21T23:42:20.598Z,82.73
2018-09-21T23:47:24.163Z,84.06
2018-09-21T23:52:27.735Z,84.60
2018-09-21T23:57:31.355Z,85.25
